Time;durP1;ratioP1;P1;durP2;ratioP2;P2;SDS_P1;SDS_P2;PMS_P1;PMS_P2;Temp;Humidity;BMP_temperature;BMP_pressure;BME280_temperature;BME280_humidity;BME280_pressure;Samples;Min_cycle;Max_cycle;Signal;HPM_P1;HPM_P2
2022/06/03 00:01:17;;;;;;;;;;;12.30;99.90;;;;;;5094083;28;20870;-77
2022/06/03 00:03:56;;;;;;;;;;;12.30;99.90;;;;;;5094058;28;19908;-76
2022/06/03 00:06:51;;;;;;;;;;;12.30;99.90;;;;;;5094524;28;19908;-77
2022/06/03 00:09:51;;;;;;;;;;;12.20;99.90;;;;;;5080883;28;19908;-77
2022/06/03 00:12:36;;;;;;;;;;;12.30;99.90;;;;;;5031937;28;19909;-77
2022/06/03 00:15:04;;;;;;;;;;;12.30;99.90;;;;;;5088467;28;19909;-77
2022/06/03 00:17:38;;;;;;;;;;;12.30;99.90;;;;;;5093974;28;20010;-77
2022/06/03 00:20:18;;;;;;;;;;;12.40;99.90;;;;;;5093726;28;19964;-77
2022/06/03 00:22:56;;;;;;;;;;;12.40;99.90;;;;;;5093761;28;20483;-77
2022/06/03 00:25:32;;;;;;;;;;;12.40;99.90;;;;;;5095072;28;19915;-77
2022/06/03 00:28:16;;;;;;;;;;;12.40;99.90;;;;;;5114240;28;19918;-77
2022/06/03 00:30:41;;;;;;;;;;;12.40;99.90;;;;;;5104624;28;19914;-77
2022/06/03 00:33:07;;;;;;;;;;;12.40;99.90;;;;;;5093447;28;19999;-77
2022/06/03 00:35:38;;;;;;;;;;;12.30;99.90;;;;;;5093686;28;19946;-77
2022/06/03 00:38:10;;;;;;;;;;;12.30;99.90;;;;;;5093212;28;19924;-77
2022/06/03 00:40:35;;;;;;;;;;;12.30;99.90;;;;;;5093746;28;19912;-77
2022/06/03 00:43:19;;;;;;;;;;;12.20;99.90;;;;;;5093162;28;20008;-77
2022/06/03 00:45:48;;;;;;;;;;;12.30;99.90;;;;;;5093555;28;19915;-77
2022/06/03 00:48:13;;;;;;;;;;;12.30;99.90;;;;;;5093834;28;19915;-77
2022/06/03 00:50:49;;;;;;;;;;;12.20;99.90;;;;;;5093664;28;19912;-77
2022/06/03 00:53:25;;;;;;;;;;;12.20;99.90;;;;;;5093797;28;20430;-77
2022/06/03 00:56:10;;;;;;;;;;;12.20;99.90;;;;;;5108154;28;19908;-76
2022/06/03 00:58:38;;;;;;;;;;;12.30;99.90;;;;;;5082313;28;19912;-79
2022/06/03 01:01:03;;;;;;;;;;;12.30;99.90;;;;;;5093442;28;19957;-88
2022/06/03 01:03:32;;;;;;;;;;;12.20;99.90;;;;;;5109258;28;19908;-84
2022/06/03 01:06:12;;;;;;;;;;;12.20;99.90;;;;;;5092571;28;19915;-85
2022/06/03 01:08:56;;;;;;;;;;;12.20;99.90;;;;;;5093683;28;19908;-87
2022/06/03 01:11:40;;;;;;;;;;;12.20;99.90;;;;;;5093739;28;20353;-90
2022/06/03 01:14:13;;;;;;;;;;;12.10;99.90;;;;;;5091951;28;20011;-90
2022/06/03 01:16:57;;;;;;;;;;;12.10;99.90;;;;;;5108956;28;19912;-90
2022/06/03 01:19:41;;;;;;;;;;;11.90;99.90;;;;;;5093619;28;19927;-91
2022/06/03 01:22:33;;;;;;;;;;;11.90;99.90;;;;;;5102746;28;20014;-88
2022/06/03 01:25:04;;;;;;;;;;;12.00;99.90;;;;;;5108851;28;19915;-88
2022/06/03 01:27:36;;;;;;;;;;;11.80;99.90;;;;;;5109263;28;19915;-91
2022/06/03 01:30:11;;;;;;;;;;;11.90;99.90;;;;;;5092944;28;19912;-86
2022/06/03 01:32:55;;;;;;;;;;;11.90;99.90;;;;;;5093215;28;19915;-88
2022/06/03 01:35:21;;;;;;;;;;;12.00;99.90;;;;;;5093265;28;19970;-85
2022/06/03 01:38:16;;;;;;;;;;;11.90;99.90;;;;;;5092589;28;19912;-84
2022/06/03 01:41:01;;;;;;;;;;;12.00;99.90;;;;;;5079121;28;19912;-86
2022/06/03 01:43:27;;;;;;;;;;;11.90;99.90;;;;;;5092635;28;20329;-89
2022/06/03 01:45:57;;;;;;;;;;;11.90;99.90;;;;;;5092361;28;19909;-83
2022/06/03 01:48:38;;;;;;;;;;;11.90;99.90;;;;;;5092753;28;19912;-81
2022/06/03 01:51:13;;;;;;;;;;;12.00;99.90;;;;;;5092452;28;19915;-80
2022/06/03 01:53:47;;;;;;;;;;;12.00;99.90;;;;;;5093007;28;19909;-80
2022/06/03 01:56:32;;;;;;;;;;;12.00;99.90;;;;;;5092113;28;19916;-80
2022/06/03 01:59:14;;;;;;;;;;;12.00;99.90;;;;;;5091071;28;19919;-79
2022/06/03 02:02:12;;;;;;;;;;;12.00;99.90;;;;;;5093168;28;19908;-81
2022/06/03 02:04:38;;;;;;;;;;;12.00;99.90;;;;;;5058505;28;19908;-87
2022/06/03 02:07:22;;;;;;;;;;;12.10;99.90;;;;;;5092214;28;20041;-89
2022/06/03 02:10:00;;;;;;;;;;;12.10;99.90;;;;;;5097142;28;19916;-87
2022/06/03 02:12:58;;;;;;;;;;;12.10;99.90;;;;;;5097522;28;19919;-88
2022/06/03 02:15:29;;;;;;;;;;;12.10;99.90;;;;;;5056045;28;19961;-86
2022/06/03 02:18:06;;;;;;;;;;;12.00;99.90;;;;;;5095982;28;19920;-90
2022/06/03 02:20:55;;;;;;;;;;;12.00;99.90;;;;;;5097613;28;19915;-87
2022/06/03 02:23:20;;;;;;;;;;;12.00;99.90;;;;;;5076974;28;19909;-85
2022/06/03 02:25:52;;;;;;;;;;;11.90;99.90;;;;;;5096705;28;19978;-81
2022/06/03 02:28:25;;;;;;;;;;;12.00;99.90;;;;;;5096235;28;19974;-80
2022/06/03 02:31:07;;;;;;;;;;;12.00;99.90;;;;;;5096401;28;20365;-80
2022/06/03 02:33:56;;;;;;;;;;;12.00;99.90;;;;;;5097016;28;19912;-86
2022/06/03 02:36:40;;;;;;;;;;;11.90;99.90;;;;;;5096748;28;19963;-86
2022/06/03 02:39:12;;;;;;;;;;;11.90;99.90;;;;;;5096540;28;19916;-88
2022/06/03 02:41:38;;;;;;;;;;;11.90;99.90;;;;;;5096531;28;19912;-82
2022/06/03 02:44:27;;;;;;;;;;;11.90;99.90;;;;;;5095394;28;19915;-80
2022/06/03 02:46:59;;;;;;;;;;;12.00;99.90;;;;;;5090340;28;19934;-79
2022/06/03 02:49:27;;;;;;;;;;;12.00;99.90;;;;;;5095937;28;20280;-80
2022/06/03 02:52:11;;;;;;;;;;;11.90;99.90;;;;;;5096152;28;19908;-79
2022/06/03 02:54:45;;;;;;;;;;;11.90;99.90;;;;;;5096068;28;19919;-82
2022/06/03 02:57:14;;;;;;;;;;;11.90;99.90;;;;;;5095495;28;20361;-80
2022/06/03 02:59:42;;;;;;;;;;;11.90;99.90;;;;;;5095860;28;19912;-81
2022/06/03 03:02:43;;;;;;;;;;;11.90;99.90;;;;;;5095338;28;19955;-80
2022/06/03 03:05:08;;;;;;;;;;;11.90;99.90;;;;;;5052708;28;20266;-79
2022/06/03 03:07:34;;;;;;;;;;;11.90;99.90;;;;;;5086766;28;19915;-79
2022/06/03 03:10:00;;;;;;;;;;;11.90;99.90;;;;;;5095127;28;19908;-78
2022/06/03 03:12:25;;;;;;;;;;;11.90;99.90;;;;;;5095644;28;19912;-81
2022/06/03 03:15:09;;;;;;;;;;;12.00;99.90;;;;;;5097658;28;19916;-87
2022/06/03 03:17:53;;;;;;;;;;;12.00;99.90;;;;;;5095561;28;19928;-87
2022/06/03 03:20:37;;;;;;;;;;;12.00;99.90;;;;;;5095187;28;19915;-88
2022/06/03 03:23:05;;;;;;;;;;;11.90;99.90;;;;;;5095017;28;19908;-86
2022/06/03 03:25:34;;;;;;;;;;;12.00;99.90;;;;;;5095259;28;19912;-88
2022/06/03 03:28:18;;;;;;;;;;;11.90;99.90;;;;;;5094547;28;19908;-86
2022/06/03 03:31:02;;;;;;;;;;;11.90;99.90;;;;;;5111190;28;20285;-84
2022/06/03 03:33:31;;;;;;;;;;;11.80;99.90;;;;;;5094936;28;19954;-81
2022/06/03 03:36:15;;;;;;;;;;;11.90;99.90;;;;;;5095237;28;19908;-80
2022/06/03 03:38:59;;;;;;;;;;;11.90;99.90;;;;;;5095024;28;19912;-86
2022/06/03 03:41:52;;;;;;;;;;;11.90;99.90;;;;;;5095067;28;19915;-89
2022/06/03 03:44:37;;;;;;;;;;;11.80;99.90;;;;;;5094529;28;19911;-87
2022/06/03 03:47:06;;;;;;;;;;;11.80;99.90;;;;;;5094234;28;20330;-89
2022/06/03 03:49:47;;;;;;;;;;;11.80;99.90;;;;;;5110806;28;19908;-89
2022/06/03 03:52:31;;;;;;;;;;;11.70;99.90;;;;;;5110189;28;20014;-88
2022/06/03 03:55:15;;;;;;;;;;;11.70;99.90;;;;;;5094612;28;20327;-87
2022/06/03 03:57:55;;;;;;;;;;;11.60;99.90;;;;;;5094616;28;20089;-88
2022/06/03 04:00:21;;;;;;;;;;;11.60;99.90;;;;;;5094236;28;19913;-84
2022/06/03 04:03:02;;;;;;;;;;;11.50;99.90;;;;;;5094620;28;19908;-82
2022/06/03 04:05:28;;;;;;;;;;;11.60;99.90;;;;;;5094719;28;19915;-79
2022/06/03 04:08:18;;;;;;;;;;;11.60;99.90;;;;;;5094535;28;19908;-80
2022/06/03 04:10:47;;;;;;;;;;;11.60;99.90;;;;;;5110360;28;19912;-80
2022/06/03 04:13:31;;;;;;;;;;;11.60;99.90;;;;;;5093707;28;20324;-79
2022/06/03 04:16:16;;;;;;;;;;;11.60;99.90;;;;;;5094179;28;19916;-78
2022/06/03 04:18:54;;;;;;;;;;;11.70;99.90;;;;;;5083561;28;20349;-78
2022/06/03 04:21:32;;;;;;;;;;;11.80;99.90;;;;;;5093615;28;20459;-78
2022/06/03 04:24:16;;;;;;;;;;;11.80;99.90;;;;;;5094135;28;20327;-78
2022/06/03 04:26:44;;;;;;;;;;;11.90;99.90;;;;;;5094182;28;19954;-78
2022/06/03 04:29:34;;;;;;;;;;;11.90;99.90;;;;;;5093173;28;19915;-78
2022/06/03 04:32:04;;;;;;;;;;;11.80;99.90;;;;;;5093866;28;20010;-79
2022/06/03 04:34:36;;;;;;;;;;;11.90;99.90;;;;;;5094197;28;19908;-78
2022/06/03 04:37:10;;;;;;;;;;;11.80;99.90;;;;;;5093787;28;20314;-78
2022/06/03 04:39:36;;;;;;;;;;;11.80;99.90;;;;;;5093979;28;19919;-78
2022/06/03 04:42:17;;;;;;;;;;;11.80;99.90;;;;;;5093547;28;20454;-78
2022/06/03 04:44:58;;;;;;;;;;;11.80;99.90;;;;;;5093981;28;19908;-78
2022/06/03 04:47:42;;;;;;;;;;;11.80;99.90;;;;;;5093314;28;19908;-78
2022/06/03 04:50:26;;;;;;;;;;;11.80;99.90;;;;;;5093305;28;19953;-78
2022/06/03 04:53:20;;;;;;;;;;;11.90;99.90;;;;;;5093884;28;19909;-78
2022/06/03 04:55:46;;;;;;;;;;;11.90;99.90;;;;;;5038526;28;20285;-77
2022/06/03 04:58:12;;;;;;;;;;;12.00;99.90;;;;;;5093181;28;19923;-78
2022/06/03 05:00:53;;;;;;;;;;;12.00;99.90;;;;;;5093460;28;19908;-78
2022/06/03 05:03:21;;;;;;;;;;;12.00;99.90;;;;;;5093102;28;19931;-78
2022/06/03 05:05:47;;;;;;;;;;;12.00;99.90;;;;;;5093390;28;19977;-78
2022/06/03 05:08:31;;;;;;;;;;;12.00;99.90;;;;;;5092894;28;19912;-78
2022/06/03 05:11:05;;;;;;;;;;;12.00;99.90;;;;;;5093533;28;19908;-78
2022/06/03 05:13:37;;;;;;;;;;;11.90;99.90;;;;;;5093118;28;19908;-78
2022/06/03 05:16:08;;;;;;;;;;;11.90;99.90;;;;;;5093243;28;19935;-78
2022/06/03 05:19:02;;;;;;;;;;;11.90;99.90;;;;;;5092909;28;20082;-78
2022/06/03 05:21:32;;;;;;;;;;;11.90;99.90;;;;;;5092767;28;19908;-77
2022/06/03 05:24:13;;;;;;;;;;;11.90;99.90;;;;;;5093096;28;19908;-77
2022/06/03 05:26:57;;;;;;;;;;;11.80;99.90;;;;;;5093251;28;19915;-78
2022/06/03 05:29:22;;;;;;;;;;;11.90;99.90;;;;;;5092429;28;19991;-77
2022/06/03 05:32:03;;;;;;;;;;;12.00;99.90;;;;;;5092839;28;20369;-77
2022/06/03 05:34:55;;;;;;;;;;;12.00;99.90;;;;;;5092089;28;19909;-77
2022/06/03 05:37:32;;;;;;;;;;;11.90;99.90;;;;;;5068292;28;19955;-77
2022/06/03 05:39:58;;;;;;;;;;;11.90;99.90;;;;;;5093067;28;19915;-77
2022/06/03 05:42:29;;;;;;;;;;;11.90;99.90;;;;;;5091898;28;19908;-77
2022/06/03 05:45:07;;;;;;;;;;;11.90;99.90;;;;;;5092694;28;20011;-77
2022/06/03 05:47:33;;;;;;;;;;;12.00;99.90;;;;;;5092585;28;19914;-77
2022/06/03 05:50:04;;;;;;;;;;;11.90;99.90;;;;;;5092860;28;19999;-77
2022/06/03 05:52:47;;;;;;;;;;;12.00;99.90;;;;;;5092323;28;19914;-77
2022/06/03 05:55:31;;;;;;;;;;;12.00;99.90;;;;;;5092330;28;19914;-77
2022/06/03 05:58:15;;;;;;;;;;;11.90;99.90;;;;;;5092756;28;19959;-77
2022/06/03 06:00:59;;;;;;;;;;;12.00;99.90;;;;;;5092838;28;19908;-77
2022/06/03 06:03:37;;;;;;;;;;;12.10;99.90;;;;;;5092047;28;19915;-77
2022/06/03 06:06:05;;;;;;;;;;;12.30;99.90;;;;;;5093085;28;19915;-76
2022/06/03 06:08:31;;;;;;;;;;;12.20;99.90;;;;;;5092137;28;19908;-77
2022/06/03 06:11:05;;;;;;;;;;;12.30;99.90;;;;;;5108096;28;19915;-77
2022/06/03 06:13:40;;;;;;;;;;;12.30;99.90;;;;;;5091900;28;19909;-77
2022/06/03 06:16:15;;;;;;;;;;;12.40;99.90;;;;;;5092488;28;19974;-77
2022/06/03 06:18:50;;;;;;;;;;;12.40;99.90;;;;;;5108136;28;19927;-77
2022/06/03 06:21:19;;;;;;;;;;;12.30;99.90;;;;;;5092140;28;20382;-77
2022/06/03 06:24:05;;;;;;;;;;;12.30;99.90;;;;;;5092980;28;19935;-76
2022/06/03 06:26:37;;;;;;;;;;;12.40;99.90;;;;;;5091765;28;20363;-76
2022/06/03 06:29:12;;;;;;;;;;;12.50;99.90;;;;;;5108149;28;19950;-77
2022/06/03 06:31:47;;;;;;;;;;;12.60;99.90;;;;;;5092505;28;20263;-77
2022/06/03 06:34:13;;;;;;;;;;;12.60;99.90;;;;;;5091696;28;19987;-77
2022/06/03 06:36:44;;;;;;;;;;;12.60;99.90;;;;;;5092499;28;20369;-78
2022/06/03 06:39:25;;;;;;;;;;;12.50;99.90;;;;;;5092233;28;19908;-77
2022/06/03 06:41:53;;;;;;;;;;;12.60;99.90;;;;;;5092475;28;19908;-77
2022/06/03 06:44:31;;;;;;;;;;;12.70;99.90;;;;;;5091698;28;19923;-77
2022/06/03 06:47:12;;;;;;;;;;;12.80;99.90;;;;;;5092280;28;19991;-77
2022/06/03 06:49:51;;;;;;;;;;;12.80;99.90;;;;;;5092301;28;19908;-77
2022/06/03 06:52:28;;;;;;;;;;;12.80;99.90;;;;;;5092005;28;19908;-77
2022/06/03 06:55:09;;;;;;;;;;;12.80;99.90;;;;;;5096144;28;19996;-77
2022/06/03 06:57:43;;;;;;;;;;;12.90;99.90;;;;;;5095742;28;19916;-77
2022/06/03 07:00:26;;;;;;;;;;;13.00;99.90;;;;;;5096083;28;19908;-77
2022/06/03 07:02:52;;;;;;;;;;;13.00;99.90;;;;;;5095916;28;19909;-77
2022/06/03 07:05:36;;;;;;;;;;;13.10;99.90;;;;;;5095120;28;19992;-77
2022/06/03 07:08:10;;;;;;;;;;;13.30;99.90;;;;;;5095911;28;19912;-78
2022/06/03 07:10:47;;;;;;;;;;;13.50;99.90;;;;;;5095185;28;19962;-78
2022/06/03 07:13:16;;;;;;;;;;;13.50;99.90;;;;;;5095306;28;19908;-78
2022/06/03 07:15:53;;;;;;;;;;;13.50;99.90;;;;;;5095564;28;19911;-78
2022/06/03 07:21:03;;;;;;;;;;;13.50;99.90;;;;;;5095550;28;19915;-79
2022/06/03 07:23:29;;;;;;;;;;;13.60;99.90;;;;;;5102857;28;20277;-78
2022/06/03 07:25:57;;;;;;;;;;;13.70;99.90;;;;;;5108689;28;20293;-78
2022/06/03 07:28:27;;;;;;;;;;;13.80;99.90;;;;;;5095078;28;19914;-77
2022/06/03 07:30:56;;;;;;;;;;;13.80;99.90;;;;;;5096616;28;19915;-77
2022/06/03 07:33:31;;;;;;;;;;;13.80;99.90;;;;;;5095087;28;19908;-77
2022/06/03 07:36:15;;;;;;;;;;;13.80;99.90;;;;;;5095026;28;19908;-77
2022/06/03 07:38:51;;;;;;;;;;;13.80;99.90;;;;;;5095132;28;20331;-77
2022/06/03 07:41:32;;;;;;;;;;;13.80;99.90;;;;;;5094660;28;19923;-78
2022/06/03 07:44:19;;;;;;;;;;;13.70;99.90;;;;;;5094586;28;20281;-77
2022/06/03 07:46:52;;;;;;;;;;;13.80;99.90;;;;;;5095361;28;19919;-77
2022/06/03 07:49:18;;;;;;;;;;;13.90;99.90;;;;;;5094452;28;19912;-78
2022/06/03 07:51:47;;;;;;;;;;;14.00;99.90;;;;;;5094744;28;20430;-78
2022/06/03 07:54:12;;;;;;;;;;;14.00;99.90;;;;;;5095397;28;19908;-77
2022/06/03 07:56:38;;;;;;;;;;;14.20;99.90;;;;;;5094382;28;19919;-77
2022/06/03 07:59:06;;;;;;;;;;;14.20;99.90;;;;;;5110286;28;19912;-77
2022/06/03 08:01:34;;;;;;;;;;;14.30;99.90;;;;;;5094184;28;19912;-77
2022/06/03 08:04:00;;;;;;;;;;;14.20;99.90;;;;;;5094167;28;20276;-77
2022/06/03 08:06:27;;;;;;;;;;;14.20;99.90;;;;;;5093642;28;19912;-78
2022/06/03 08:11:41;;;;;;;;;;;14.10;99.90;;;;;;5093502;28;19923;-77
2022/06/03 08:14:07;;;;;;;;;;;14.10;99.90;;;;;;5094303;28;20296;-77
2022/06/03 08:16:40;;;;;;;;;;;13.90;99.90;;;;;;5093894;28;19916;-77
2022/06/03 08:19:17;;;;;;;;;;;14.10;99.90;;;;;;5102792;28;19920;-78
2022/06/03 08:22:00;;;;;;;;;;;14.40;99.90;;;;;;5112381;28;19908;-77
2022/06/03 08:24:27;;;;;;;;;;;14.70;99.90;;;;;;5095011;28;20300;-77
2022/06/03 08:26:57;;;;;;;;;;;15.00;99.90;;;;;;5094385;28;19915;-77
2022/06/03 08:29:26;;;;;;;;;;;15.10;99.90;;;;;;5093742;28;19908;-77
2022/06/03 08:31:53;;;;;;;;;;;15.20;99.90;;;;;;5093895;28;19908;-77
2022/06/03 08:34:27;;;;;;;;;;;15.20;99.90;;;;;;5093791;28;19908;-77
2022/06/03 08:36:53;;;;;;;;;;;15.30;99.90;;;;;;5094137;28;19923;-76
2022/06/03 08:39:23;;;;;;;;;;;15.20;99.90;;;;;;5109277;28;19967;-76
2022/06/03 08:41:49;;;;;;;;;;;15.30;99.90;;;;;;5093964;28;19915;-76
2022/06/03 08:44:27;;;;;;;;;;;15.20;99.90;;;;;;5094060;28;19912;-77
2022/06/03 08:46:59;;;;;;;;;;;15.20;99.90;;;;;;5093666;28;19908;-77
2022/06/03 08:49:27;;;;;;;;;;;15.00;99.90;;;;;;5093277;28;19908;-77
2022/06/03 08:52:02;;;;;;;;;;;15.10;99.90;;;;;;5093843;28;20003;-77
2022/06/03 08:54:35;;;;;;;;;;;15.10;99.90;;;;;;5093221;28;20001;-77
2022/06/03 08:57:16;;;;;;;;;;;15.10;99.90;;;;;;5093537;28;19960;-77
2022/06/03 08:59:51;;;;;;;;;;;14.80;99.90;;;;;;5093140;28;19908;-77
2022/06/03 09:02:37;;;;;;;;;;;14.90;99.90;;;;;;5093760;28;20399;-77
2022/06/03 09:05:05;;;;;;;;;;;14.90;99.90;;;;;;5093472;28;20383;-77
2022/06/03 09:07:49;;;;;;;;;;;14.90;99.90;;;;;;5092651;28;19927;-77
2022/06/03 09:10:37;;;;;;;;;;;15.00;99.90;;;;;;5092979;28;19934;-77
2022/06/03 09:13:15;;;;;;;;;;;15.00;99.90;;;;;;5093565;28;19955;-77
2022/06/03 09:15:43;;;;;;;;;;;14.80;99.90;;;;;;5092664;28;19914;-77
2022/06/03 09:18:18;;;;;;;;;;;14.90;99.90;;;;;;5093089;28;19920;-77
2022/06/03 09:20:44;;;;;;;;;;;15.00;99.90;;;;;;5092821;28;19981;-77
2022/06/03 09:23:11;;;;;;;;;;;15.00;99.90;;;;;;5093090;28;20357;-77
2022/06/03 09:25:38;;;;;;;;;;;15.10;99.90;;;;;;5093012;28;19915;-75
2022/06/03 09:28:05;;;;;;;;;;;15.20;99.90;;;;;;5093165;28;20341;-75
2022/06/03 09:30:34;;;;;;;;;;;15.40;99.90;;;;;;5092506;28;19908;-77
2022/06/03 09:33:02;;;;;;;;;;;15.50;99.90;;;;;;5092863;28;20421;-78
2022/06/03 09:35:28;;;;;;;;;;;15.40;99.90;;;;;;5091444;28;19971;-75
2022/06/03 09:37:57;;;;;;;;;;;15.30;99.90;;;;;;5092768;28;20010;-75
2022/06/03 09:40:24;;;;;;;;;;;15.30;99.90;;;;;;5092726;28;19912;-77
2022/06/03 09:42:55;;;;;;;;;;;15.40;99.90;;;;;;5094552;28;19960;-77
2022/06/03 09:45:23;;;;;;;;;;;15.50;99.90;;;;;;5092972;28;19986;-77
2022/06/03 09:47:49;;;;;;;;;;;15.50;99.90;;;;;;5092627;28;19908;-77
2022/06/03 09:50:16;;;;;;;;;;;15.50;99.90;;;;;;5092941;28;20008;-77
2022/06/03 09:52:41;;;;;;;;;;;15.30;99.90;;;;;;5092361;28;19944;-76
2022/06/03 09:55:15;;;;;;;;;;;15.30;99.90;;;;;;5092529;28;19908;-77
2022/06/03 09:57:43;;;;;;;;;;;15.00;99.90;;;;;;5092221;28;19912;-76
2022/06/03 10:00:15;;;;;;;;;;;14.90;99.90;;;;;;5093035;28;19912;-76
2022/06/03 10:02:42;;;;;;;;;;;15.00;99.90;;;;;;5092326;28;20345;-76
2022/06/03 10:05:09;;;;;;;;;;;15.10;99.90;;;;;;5092265;28;20019;-76
2022/06/03 10:07:35;;;;;;;;;;;15.10;99.90;;;;;;5092484;28;19954;-76
2022/06/03 10:12:49;;;;;;;;;;;14.90;99.90;;;;;;5091624;28;19914;-76
2022/06/03 10:15:37;;;;;;;;;;;14.90;99.90;;;;;;5092244;28;19908;-75
2022/06/03 10:18:05;;;;;;;;;;;15.00;99.90;;;;;;5091982;28;19927;-76
2022/06/03 10:20:32;;;;;;;;;;;15.20;99.90;;;;;;5091130;28;20292;-76
2022/06/03 10:22:58;;;;;;;;;;;15.40;99.90;;;;;;5092135;28;19991;-76
2022/06/03 10:25:26;;;;;;;;;;;15.50;99.90;;;;;;5107646;28;19916;-76
2022/06/03 10:27:52;;;;;;;;;;;15.50;99.90;;;;;;5093293;28;19930;-76
2022/06/03 10:30:25;;;;;;;;;;;15.60;99.90;;;;;;5095580;28;19908;-77
2022/06/03 10:32:51;;;;;;;;;;;15.70;99.90;;;;;;5111661;28;19954;-77
2022/06/03 10:35:16;;;;;;;;;;;15.70;99.90;;;;;;5095884;28;19908;-76
2022/06/03 10:37:48;;;;;;;;;;;15.70;99.90;;;;;;5095898;28;19920;-77
2022/06/03 10:40:14;;;;;;;;;;;15.50;99.90;;;;;;5105359;28;19934;-76
2022/06/03 10:42:44;;;;;;;;;;;15.40;99.90;;;;;;5095187;28;20373;-77
2022/06/03 10:45:09;;;;;;;;;;;15.40;99.90;;;;;;5095742;28;19919;-76
2022/06/03 10:47:38;;;;;;;;;;;15.20;99.90;;;;;;5095236;28;19912;-76
2022/06/03 10:50:06;;;;;;;;;;;15.30;99.90;;;;;;5094240;28;19997;-76
2022/06/03 11:01:11;;;;;;;;;;;15.30;99.90;;;;;;5057572;28;19959;-77
2022/06/03 11:03:38;;;;;;;;;;;15.30;99.90;;;;;;5094423;28;19965;-77
2022/06/03 11:06:09;;;;;;;;;;;15.40;99.90;;;;;;5095316;28;19922;-76
2022/06/03 11:08:48;;;;;;;;;;;15.20;99.90;;;;;;5094360;28;19943;-76
2022/06/03 11:11:14;;;;;;;;;;;15.20;99.90;;;;;;5095361;28;19908;-76
2022/06/03 11:13:40;;;;;;;;;;;15.40;99.90;;;;;;5094396;28;19915;-76
2022/06/03 11:16:25;;;;;;;;;;;15.40;99.90;;;;;;5094336;28;19969;-76
2022/06/03 11:18:51;;;;;;;;;;;15.50;99.90;;;;;;5091419;28;19924;-76
2022/06/03 11:21:22;;;;;;;;;;;15.50;99.90;;;;;;5095199;28;20254;-77
2022/06/03 11:23:48;;;;;;;;;;;15.60;99.90;;;;;;5094233;28;19908;-76
2022/06/03 11:26:14;;;;;;;;;;;15.50;99.90;;;;;;5094851;28;19975;-76
2022/06/03 11:28:42;;;;;;;;;;;15.60;99.90;;;;;;5094698;28;19908;-76
2022/06/03 11:31:13;;;;;;;;;;;15.70;99.90;;;;;;5094658;28;19908;-76
2022/06/03 11:33:52;;;;;;;;;;;15.70;99.90;;;;;;5093997;28;20052;-77
2022/06/03 11:36:20;;;;;;;;;;;15.80;99.90;;;;;;5095097;28;20265;-77
2022/06/03 11:38:46;;;;;;;;;;;15.90;99.90;;;;;;5097450;28;20535;-76
2022/06/03 11:41:14;;;;;;;;;;;16.00;99.90;;;;;;5094610;28;19908;-76
2022/06/03 11:43:44;;;;;;;;;;;16.20;99.90;;;;;;5094053;28;19959;-76
2022/06/03 11:46:22;;;;;;;;;;;16.10;99.90;;;;;;5094682;28;19962;-77
2022/06/03 11:48:52;;;;;;;;;;;16.10;99.90;;;;;;5093192;28;20362;-76
2022/06/03 11:51:19;;;;;;;;;;;16.10;99.90;;;;;;5076345;28;19912;-76
2022/06/03 11:53:50;;;;;;;;;;;15.90;99.90;;;;;;5093767;28;19912;-76
2022/06/03 11:56:36;;;;;;;;;;;16.10;99.90;;;;;;5094261;28;19918;-76
2022/06/03 11:59:04;;;;;;;;;;;16.00;99.90;;;;;;5076592;28;19958;-77
2022/06/03 12:01:43;;;;;;;;;;;15.80;99.90;;;;;;5094269;28;19908;-76
2022/06/03 12:04:09;;;;;;;;;;;16.00;99.90;;;;;;5094908;28;19958;-76
2022/06/03 12:06:42;;;;;;;;;;;15.80;99.90;;;;;;5094115;28;20268;-77
2022/06/03 12:09:26;;;;;;;;;;;16.00;99.90;;;;;;5094185;28;20364;-76
2022/06/03 12:14:45;;;;;;;;;;;16.00;99.90;;;;;;5093966;28;19918;-77
2022/06/03 12:17:11;;;;;;;;;;;16.20;99.90;;;;;;5093940;28;19920;-76
2022/06/03 12:19:44;;;;;;;;;;;16.40;99.90;;;;;;5093476;28;19915;-76
2022/06/03 12:22:19;;;;;;;;;;;16.50;99.90;;;;;;5093949;28;19912;-76
2022/06/03 12:24:52;;;;;;;;;;;16.60;99.90;;;;;;5093548;28;19908;-76
2022/06/03 12:27:19;;;;;;;;;;;16.60;99.90;;;;;;5094386;28;19908;-76
2022/06/03 12:29:50;;;;;;;;;;;16.50;99.90;;;;;;5093514;28;20302;-76
2022/06/03 12:32:28;;;;;;;;;;;16.20;99.90;;;;;;5094496;28;20430;-76
2022/06/03 12:35:12;;;;;;;;;;;16.10;99.90;;;;;;5093843;28;19939;-76
2022/06/03 12:37:38;;;;;;;;;;;16.10;99.90;;;;;;5093536;28;19999;-76
2022/06/03 12:40:19;;;;;;;;;;;16.00;99.90;;;;;;5094173;28;20404;-76
2022/06/03 12:42:45;;;;;;;;;;;16.00;99.90;;;;;;5093501;28;19939;-76
2022/06/03 12:45:13;;;;;;;;;;;16.00;99.90;;;;;;5094036;28;20356;-76
2022/06/03 12:47:43;;;;;;;;;;;16.10;99.90;;;;;;5075196;28;19908;-76
2022/06/03 12:50:28;;;;;;;;;;;15.90;99.90;;;;;;5093177;28;19912;-76
2022/06/03 12:53:06;;;;;;;;;;;15.80;99.90;;;;;;5093647;28;19915;-76
2022/06/03 12:55:36;;;;;;;;;;;15.90;99.90;;;;;;5093402;28;20531;-76
2022/06/03 12:58:04;;;;;;;;;;;16.10;99.90;;;;;;5093571;28;19963;-76
2022/06/03 13:00:34;;;;;;;;;;;16.20;99.90;;;;;;5093604;28;19998;-76
2022/06/03 13:03:26;;;;;;;;;;;16.10;99.90;;;;;;5093730;28;20281;-76
2022/06/03 13:05:53;;;;;;;;;;;16.00;99.90;;;;;;5092637;28;19908;-76
2022/06/03 13:08:21;;;;;;;;;;;16.10;99.90;;;;;;5093806;28;19908;-76
2022/06/03 13:10:53;;;;;;;;;;;16.30;99.90;;;;;;5093105;28;19954;-76
2022/06/03 13:13:28;;;;;;;;;;;16.40;99.90;;;;;;5093212;28;19908;-76
2022/06/03 13:16:14;;;;;;;;;;;16.20;99.90;;;;;;5093001;28;20269;-76
2022/06/03 13:18:41;;;;;;;;;;;16.10;99.90;;;;;;5092630;28;19926;-76
2022/06/03 13:21:07;;;;;;;;;;;15.90;99.90;;;;;;5093207;28;19908;-76
2022/06/03 13:23:51;;;;;;;;;;;16.00;99.90;;;;;;5092568;28;20321;-76
2022/06/03 13:26:23;;;;;;;;;;;15.70;99.90;;;;;;5093379;28;19908;-76
2022/06/03 13:28:59;;;;;;;;;;;15.90;99.90;;;;;;5074379;28;20376;-76
2022/06/03 13:31:40;;;;;;;;;;;16.10;99.90;;;;;;5091030;28;19977;-77
2022/06/03 13:34:10;;;;;;;;;;;16.00;99.90;;;;;;5089268;28;20011;-77
2022/06/03 13:36:44;;;;;;;;;;;16.20;99.90;;;;;;5091782;28;19920;-77
2022/06/03 13:39:13;;;;;;;;;;;16.20;99.90;;;;;;5091315;28;20007;-76
2022/06/03 13:44:36;;;;;;;;;;;16.00;99.90;;;;;;5092654;28;19915;-76
2022/06/03 13:47:04;;;;;;;;;;;15.80;99.90;;;;;;5092783;28;19916;-76
2022/06/03 13:49:30;;;;;;;;;;;15.90;99.90;;;;;;5092892;28;19908;-76
2022/06/03 13:52:02;;;;;;;;;;;16.20;99.90;;;;;;5092156;28;19924;-77
2022/06/03 13:54:33;;;;;;;;;;;16.00;99.90;;;;;;5075056;28;19908;-77
2022/06/03 13:57:08;;;;;;;;;;;16.20;99.90;;;;;;5095069;28;19916;-76
2022/06/03 13:59:37;;;;;;;;;;;16.10;99.90;;;;;;5098311;28;19970;-76
2022/06/03 14:02:09;;;;;;;;;;;16.40;99.90;;;;;;5094151;28;19915;-76
2022/06/03 14:04:45;;;;;;;;;;;16.60;99.90;;;;;;5096429;28;20343;-76
2022/06/03 14:07:10;;;;;;;;;;;16.30;99.90;;;;;;5096942;28;19912;-76
2022/06/03 14:09:47;;;;;;;;;;;16.40;99.90;;;;;;5096495;28;19908;-76
2022/06/03 14:12:36;;;;;;;;;;;16.30;99.90;;;;;;5097009;28;19908;-76
2022/06/03 14:15:08;;;;;;;;;;;16.30;99.90;;;;;;5096909;28;20053;-76
2022/06/03 14:17:50;;;;;;;;;;;16.30;99.90;;;;;;5094661;28;19920;-76
2022/06/03 14:20:20;;;;;;;;;;;16.70;99.90;;;;;;5097146;28;19908;-76
2022/06/03 14:22:59;;;;;;;;;;;16.80;99.90;;;;;;5095736;28;20421;-77
2022/06/03 14:25:32;;;;;;;;;;;16.80;99.90;;;;;;5096532;28;19958;-77
2022/06/03 14:28:07;;;;;;;;;;;16.80;99.90;;;;;;5095797;28;19909;-76
2022/06/03 14:30:51;;;;;;;;;;;17.00;99.90;;;;;;5112506;28;19908;-76
2022/06/03 14:33:17;;;;;;;;;;;17.10;99.90;;;;;;5096139;28;19912;-76
2022/06/03 14:35:47;;;;;;;;;;;17.20;99.90;;;;;;5093724;28;19935;-76
2022/06/03 14:38:16;;;;;;;;;;;17.00;99.90;;;;;;5095327;28;20014;-77
2022/06/03 14:40:44;;;;;;;;;;;16.70;99.90;;;;;;5095626;28;19935;-76
2022/06/03 14:43:12;;;;;;;;;;;16.60;99.90;;;;;;5096249;28;19916;-77
2022/06/03 14:45:45;;;;;;;;;;;16.60;99.90;;;;;;5095373;28;20310;-76
2022/06/03 14:48:12;;;;;;;;;;;16.40;99.90;;;;;;5104055;28;20073;-77
2022/06/03 14:50:44;;;;;;;;;;;16.40;99.90;;;;;;5104642;28;20419;-76
2022/06/03 14:53:16;;;;;;;;;;;16.80;99.90;;;;;;5095766;28;20366;-76
2022/06/03 14:55:43;;;;;;;;;;;17.10;99.90;;;;;;5095424;28;19955;-76
2022/06/03 14:58:23;;;;;;;;;;;17.20;99.90;;;;;;5095996;28;19919;-76
2022/06/03 15:01:07;;;;;;;;;;;17.30;99.90;;;;;;5095544;28;19947;-77
2022/06/03 15:03:38;;;;;;;;;;;17.10;99.90;;;;;;5096383;28;19912;-76
2022/06/03 15:06:18;;;;;;;;;;;16.90;99.90;;;;;;5095905;28;19970;-76
2022/06/03 15:08:48;;;;;;;;;;;17.00;99.90;;;;;;5095591;28;20020;-76
2022/06/03 15:11:25;;;;;;;;;;;17.10;99.90;;;;;;5095695;28;19908;-76
2022/06/03 15:13:52;;;;;;;;;;;16.70;99.90;;;;;;5094503;28;19908;-76
2022/06/03 15:16:17;;;;;;;;;;;16.40;99.90;;;;;;5095543;28;19955;-76
2022/06/03 15:18:44;;;;;;;;;;;16.40;99.90;;;;;;5094961;28;19947;-76